CheckWX is a tool to help pilots better visualize weather data.  It is not intended as a substitute for an official pre-flight weather briefing.

23:34:52 UTC

KHKA METAR
Blytheville Municipal Airport
Blytheville, Arkansas, USA
Current

42 mins ago

KHKA 242253Z AUTO 16009KT 10SM CLR 30/20 A2988 RMK AO2 SLP115 T03000200 $
Observed
May-24 @ 22:53 UTC
Wind
  • 160° at 9 KTS
Visibility
Flight Rules
VFR
Cloud Levels
  • Clear skies
Temperature
30°C / 86°F
Dewpoint
20°C / 68°F
Humidity
55%
Altimeter
29.88" Hg
Pressure
1011.82 hPa
Previous

2 hours ago

KHKA 242153Z AUTO 17010KT 10SM FEW031 30/21 A2990 RMK AO2 SLP122 T03000211 $
Observed
May-24 @ 21:53 UTC
Wind
  • 170° at 10 KTS
Visibility
Flight Rules
VFR
Cloud Levels
  • Few at 3,100' AGL
Temperature
30°C / 86°F
Dewpoint
21°C / 70°F
Humidity
59%
Altimeter
29.9" Hg
Pressure
1012.52 hPa
Previous

3 hours ago

KHKA 242053Z AUTO 16011G17KT 10SM FEW028 30/21 A2993 RMK AO2 SLP130 T03000211 58028 $
Observed
May-24 @ 20:53 UTC
Wind
  • 160° at 11 KTS
  • Gusting to 17 KTS
Visibility
Flight Rules
VFR
Cloud Levels
  • Few at 2,800' AGL
Temperature
30°C / 86°F
Dewpoint
21°C / 70°F
Humidity
59%
Altimeter
29.93" Hg
Pressure
1013.52 hPa